ROT274K LGAV-LROP
Flight info
| Callsign | ROT274K |
|---|---|
| Flight time | 1h 16m |
| Altitude | 40000 |
| Route | N0453F310 KRO UT162 KOROS/N0452F400 UN133 ATFIR M987 SOMOV DCT SORDU |
| Aircraft | B737/M-VW/N |
Departure
| Time | 2026-05-05 16:37 |
|---|---|
| Airport | Athens Eleftherios Venizelos International Airport (LGAV) |
Arrival
| Time | 2026-05-05 17:53 |
|---|---|
| Airport | Bucharest Henri Coandă International Airport (LROP) |
| Time | Latitude | Longitude | Altitude | Speed | Heading |
|---|---|---|---|---|---|
| 2026-05-05 16:09 | 37.93692 | 23.94925 | 316 ft | 0 kts | 306° |
| 2026-05-05 16:26 | 37.93674 | 23.94949 | 316 ft | 3 kts | 329° |
| 2026-05-05 16:27 | 37.93670 | 23.94952 | 316 ft | 1 kts | 338° |
| 2026-05-05 16:27 | 37.93668 | 23.94953 | 316 ft | 1 kts | 338° |
| 2026-05-05 16:27 | 37.93655 | 23.94959 | 316 ft | 3 kts | 349° |
| 2026-05-05 16:27 | 37.93653 | 23.94959 | 316 ft | 2 kts | 351° |
| 2026-05-05 16:28 | 37.93648 | 23.94960 | 316 ft | 0 kts | 351° |
| 2026-05-05 16:28 | 37.93638 | 23.94961 | 316 ft | 2 kts | 0° |
| 2026-05-05 16:28 | 37.93620 | 23.94957 | 316 ft | 3 kts | 21° |
| 2026-05-05 16:28 | 37.93611 | 23.94954 | 316 ft | 3 kts | 60° |
| 2026-05-05 16:29 | 37.93614 | 23.94972 | 316 ft | 0 kts | 39° |
| 2026-05-05 16:34 | 37.93611 | 23.95012 | 316 ft | 12 kts | 117° |
| 2026-05-05 16:34 | 37.93543 | 23.95035 | 316 ft | 15 kts | 219° |
| 2026-05-05 16:34 | 37.93421 | 23.94947 | 316 ft | 23 kts | 166° |
| 2026-05-05 16:34 | 37.93297 | 23.94946 | 316 ft | 27 kts | 215° |
| 2026-05-05 16:35 | 37.93136 | 23.94792 | 316 ft | 28 kts | 217° |
| 2026-05-05 16:35 | 37.92983 | 23.94648 | 316 ft | 28 kts | 217° |
| 2026-05-05 16:35 | 37.92835 | 23.94506 | 316 ft | 25 kts | 217° |
| 2026-05-05 16:35 | 37.92701 | 23.94379 | 316 ft | 23 kts | 217° |
| 2026-05-05 16:36 | 37.92574 | 23.94259 | 316 ft | 25 kts | 217° |
| 2026-05-05 16:36 | 37.92431 | 23.94171 | 316 ft | 21 kts | 139° |
| 2026-05-05 16:36 | 37.92409 | 23.94338 | 316 ft | 13 kts | 122° |
| 2026-05-05 16:36 | 37.92450 | 23.94419 | 316 ft | 23 kts | 37° |
| 2026-05-05 16:37 | 37.92745 | 23.94698 | 316 ft | 83 kts | 37° |
| 2026-05-05 16:37 | 37.93354 | 23.95277 | 318 ft | 134 kts | 37° |
| 2026-05-05 16:37 | 37.94151 | 23.96038 | 632 ft | 149 kts | 37° |
| 2026-05-05 16:37 | 37.94975 | 23.96823 | 1262 ft | 147 kts | 36° |
| 2026-05-05 16:38 | 37.95799 | 23.97600 | 1838 ft | 148 kts | 36° |
| 2026-05-05 16:38 | 37.96666 | 23.98421 | 2368 ft | 168 kts | 37° |
| 2026-05-05 16:38 | 37.97681 | 23.99386 | 2792 ft | 197 kts | 37° |
| 2026-05-05 16:38 | 37.98863 | 24.00519 | 3138 ft | 228 kts | 38° |
| 2026-05-05 16:39 | 38.00199 | 24.01805 | 3747 ft | 248 kts | 38° |
| 2026-05-05 16:39 | 38.01583 | 24.03139 | 4818 ft | 252 kts | 37° |
| 2026-05-05 16:39 | 38.02991 | 24.04500 | 5962 ft | 257 kts | 38° |
| 2026-05-05 16:39 | 38.04431 | 24.05891 | 6992 ft | 264 kts | 38° |
| 2026-05-05 16:40 | 38.05938 | 24.07314 | 7815 ft | 280 kts | 36° |
| 2026-05-05 16:40 | 38.07546 | 24.08814 | 8716 ft | 289 kts | 36° |
| 2026-05-05 16:40 | 38.09177 | 24.10339 | 9743 ft | 294 kts | 35° |
| 2026-05-05 16:40 | 38.10824 | 24.11884 | 10803 ft | 296 kts | 34° |
| 2026-05-05 16:41 | 38.12498 | 24.13453 | 11761 ft | 303 kts | 33° |
| 2026-05-05 16:41 | 38.14232 | 24.15078 | 12538 ft | 316 kts | 33° |
| 2026-05-05 16:41 | 38.16045 | 24.16778 | 13182 ft | 333 kts | 33° |
| 2026-05-05 16:41 | 38.17950 | 24.18568 | 13851 ft | 346 kts | 33° |
| 2026-05-05 16:42 | 38.19906 | 24.20408 | 14733 ft | 353 kts | 33° |
| 2026-05-05 16:42 | 38.21896 | 24.22278 | 15655 ft | 358 kts | 33° |
| 2026-05-05 16:42 | 38.23909 | 24.24177 | 16548 ft | 363 kts | 33° |
| 2026-05-05 16:42 | 38.25948 | 24.26099 | 17396 ft | 368 kts | 32° |
| 2026-05-05 16:43 | 38.28025 | 24.28058 | 18243 ft | 373 kts | 32° |
| 2026-05-05 16:43 | 38.30125 | 24.30040 | 19055 ft | 378 kts | 32° |
| 2026-05-05 16:43 | 38.32250 | 24.32039 | 19842 ft | 383 kts | 32° |
| 2026-05-05 16:43 | 38.34415 | 24.34057 | 20604 ft | 387 kts | 32° |
| 2026-05-05 16:44 | 38.36598 | 24.36100 | 21331 ft | 392 kts | 31° |
| 2026-05-05 16:44 | 38.38934 | 24.37867 | 22025 ft | 389 kts | 18° |
| 2026-05-05 16:44 | 38.41533 | 24.38696 | 22719 ft | 385 kts | 2° |
| 2026-05-05 16:44 | 38.44201 | 24.38603 | 23379 ft | 384 kts | 349° |
| 2026-05-05 16:45 | 38.46845 | 24.38014 | 24022 ft | 387 kts | 349° |
| 2026-05-05 16:45 | 38.49519 | 24.37503 | 24682 ft | 390 kts | 349° |
| 2026-05-05 16:45 | 38.52207 | 24.36984 | 25335 ft | 391 kts | 349° |
| 2026-05-05 16:45 | 38.54903 | 24.36461 | 25955 ft | 393 kts | 349° |
| 2026-05-05 16:46 | 38.57620 | 24.35927 | 26516 ft | 396 kts | 349° |
| 2026-05-05 16:46 | 38.60343 | 24.35389 | 27073 ft | 398 kts | 348° |
| 2026-05-05 16:46 | 38.63084 | 24.34846 | 27595 ft | 400 kts | 348° |
| 2026-05-05 16:46 | 38.65844 | 24.34297 | 28088 ft | 402 kts | 348° |
| 2026-05-05 16:47 | 38.68615 | 24.33745 | 28570 ft | 404 kts | 348° |
| 2026-05-05 16:47 | 38.71390 | 24.33192 | 29026 ft | 406 kts | 348° |
| 2026-05-05 16:47 | 38.74194 | 24.32632 | 29471 ft | 408 kts | 348° |
| 2026-05-05 16:47 | 38.77007 | 24.32069 | 29863 ft | 410 kts | 348° |
| 2026-05-05 16:48 | 38.79822 | 24.31509 | 30339 ft | 410 kts | 348° |
| 2026-05-05 16:48 | 38.82631 | 24.30953 | 30891 ft | 408 kts | 348° |
| 2026-05-05 16:48 | 38.85437 | 24.30395 | 31379 ft | 407 kts | 348° |
| 2026-05-05 16:48 | 38.88232 | 24.29837 | 31865 ft | 406 kts | 348° |
| 2026-05-05 16:49 | 38.91038 | 24.29277 | 32003 ft | 409 kts | 348° |
| 2026-05-05 16:49 | 38.93848 | 24.28714 | 32035 ft | 409 kts | 348° |
| 2026-05-05 16:49 | 38.99444 | 24.27592 | 32044 ft | 406 kts | 348° |
| 2026-05-05 16:50 | 39.05025 | 24.26471 | 32043 ft | 406 kts | 348° |
| 2026-05-05 16:50 | 39.10608 | 24.25347 | 32042 ft | 407 kts | 348° |
| 2026-05-05 16:51 | 39.16204 | 24.24218 | 32041 ft | 407 kts | 348° |
| 2026-05-05 16:51 | 39.21795 | 24.23088 | 32046 ft | 407 kts | 348° |
| 2026-05-05 16:52 | 39.24606 | 24.22520 | 32288 ft | 410 kts | 348° |
| 2026-05-05 16:52 | 39.27415 | 24.21951 | 32780 ft | 408 kts | 348° |
| 2026-05-05 16:52 | 39.30205 | 24.21386 | 33396 ft | 402 kts | 347° |
| 2026-05-05 16:52 | 39.32943 | 24.20831 | 33935 ft | 399 kts | 347° |
| 2026-05-05 16:53 | 39.35671 | 24.20277 | 34388 ft | 397 kts | 347° |
| 2026-05-05 16:53 | 39.38407 | 24.19722 | 34666 ft | 399 kts | 347° |
| 2026-05-05 16:53 | 39.41169 | 24.19160 | 34976 ft | 400 kts | 347° |
| 2026-05-05 16:53 | 39.43915 | 24.18602 | 35341 ft | 400 kts | 347° |
| 2026-05-05 16:54 | 39.46668 | 24.18041 | 35631 ft | 401 kts | 347° |
| 2026-05-05 16:54 | 39.49428 | 24.17479 | 35941 ft | 401 kts | 347° |
| 2026-05-05 16:54 | 39.54995 | 24.16343 | 36038 ft | 406 kts | 347° |
| 2026-05-05 16:55 | 39.57782 | 24.15774 | 36258 ft | 407 kts | 347° |
| 2026-05-05 16:55 | 39.60581 | 24.15202 | 36623 ft | 405 kts | 347° |
| 2026-05-05 16:55 | 39.63360 | 24.14633 | 36980 ft | 404 kts | 347° |
| 2026-05-05 16:55 | 39.66138 | 24.14065 | 37284 ft | 404 kts | 347° |
| 2026-05-05 16:56 | 39.68915 | 24.13496 | 37551 ft | 404 kts | 347° |
| 2026-05-05 16:56 | 39.71703 | 24.12924 | 37785 ft | 405 kts | 347° |
| 2026-05-05 16:56 | 39.74490 | 24.12352 | 38047 ft | 406 kts | 347° |
| 2026-05-05 16:56 | 39.77272 | 24.11781 | 38316 ft | 406 kts | 347° |
| 2026-05-05 16:57 | 39.80066 | 24.11206 | 38534 ft | 407 kts | 347° |
| 2026-05-05 16:57 | 39.82865 | 24.10630 | 38770 ft | 407 kts | 347° |
| 2026-05-05 16:57 | 39.85666 | 24.10053 | 38992 ft | 408 kts | 347° |
| 2026-05-05 16:57 | 39.88473 | 24.09475 | 39221 ft | 408 kts | 347° |
| 2026-05-05 16:58 | 39.91281 | 24.08896 | 39410 ft | 409 kts | 347° |
| 2026-05-05 16:58 | 39.94094 | 24.08315 | 39644 ft | 409 kts | 347° |
| 2026-05-05 16:58 | 39.96905 | 24.07734 | 39828 ft | 411 kts | 348° |
| 2026-05-05 16:58 | 39.99729 | 24.07151 | 40014 ft | 412 kts | 347° |
| 2026-05-05 16:59 | 40.05391 | 24.05978 | 40026 ft | 415 kts | 348° |
| 2026-05-05 16:59 | 40.11109 | 24.04792 | 40031 ft | 413 kts | 347° |
| 2026-05-05 17:00 | 40.16781 | 24.03614 | 40031 ft | 413 kts | 347° |
| 2026-05-05 17:00 | 40.21497 | 24.02633 | 40031 ft | 413 kts | 347° |
| 2026-05-05 17:01 | 40.27175 | 24.01450 | 40031 ft | 413 kts | 347° |
| 2026-05-05 17:01 | 40.32846 | 24.00266 | 40031 ft | 414 kts | 348° |
| 2026-05-05 17:02 | 40.38536 | 23.99076 | 40031 ft | 413 kts | 347° |
| 2026-05-05 17:02 | 40.44204 | 23.97889 | 40031 ft | 413 kts | 348° |
| 2026-05-05 17:03 | 40.49888 | 23.96697 | 40031 ft | 413 kts | 348° |
| 2026-05-05 17:03 | 40.55568 | 23.95503 | 40032 ft | 413 kts | 348° |
| 2026-05-05 17:04 | 40.61246 | 23.94308 | 40033 ft | 413 kts | 347° |
| 2026-05-05 17:04 | 40.66927 | 23.93109 | 40033 ft | 414 kts | 348° |
| 2026-05-05 17:05 | 40.72613 | 23.91908 | 40033 ft | 414 kts | 348° |
| 2026-05-05 17:05 | 40.78293 | 23.90706 | 40034 ft | 414 kts | 348° |
| 2026-05-05 17:06 | 40.83982 | 23.89500 | 40034 ft | 414 kts | 348° |
| 2026-05-05 17:06 | 40.89669 | 23.88292 | 40035 ft | 414 kts | 348° |
| 2026-05-05 17:07 | 40.95351 | 23.87084 | 40030 ft | 414 kts | 348° |
| 2026-05-05 17:07 | 41.01054 | 23.85868 | 40029 ft | 415 kts | 348° |
| 2026-05-05 17:08 | 41.06753 | 23.84652 | 40028 ft | 415 kts | 348° |
| 2026-05-05 17:08 | 41.12489 | 23.83698 | 40027 ft | 418 kts | 356° |
| 2026-05-05 17:09 | 41.18286 | 23.84757 | 40029 ft | 426 kts | 11° |
| 2026-05-05 17:09 | 41.23989 | 23.86927 | 40027 ft | 427 kts | 12° |
| 2026-05-05 17:10 | 41.29691 | 23.89122 | 40027 ft | 426 kts | 12° |
| 2026-05-05 17:10 | 41.35400 | 23.91322 | 40026 ft | 427 kts | 12° |
| 2026-05-05 17:11 | 41.41061 | 23.93507 | 40025 ft | 427 kts | 12° |
| 2026-05-05 17:11 | 41.46766 | 23.95712 | 40023 ft | 427 kts | 12° |
| 2026-05-05 17:12 | 41.52504 | 23.97931 | 40022 ft | 427 kts | 12° |
| 2026-05-05 17:12 | 41.58214 | 24.00119 | 40020 ft | 427 kts | 12° |
| 2026-05-05 17:13 | 41.63884 | 24.02306 | 40018 ft | 427 kts | 12° |
| 2026-05-05 17:13 | 41.69591 | 24.04517 | 40016 ft | 427 kts | 12° |
| 2026-05-05 17:14 | 41.75297 | 24.06733 | 40014 ft | 427 kts | 12° |
| 2026-05-05 17:14 | 41.80999 | 24.08953 | 40013 ft | 427 kts | 12° |
| 2026-05-05 17:15 | 41.86704 | 24.11178 | 40012 ft | 427 kts | 12° |
| 2026-05-05 17:15 | 41.92444 | 24.13421 | 40010 ft | 427 kts | 12° |
| 2026-05-05 17:16 | 41.98148 | 24.15655 | 40008 ft | 427 kts | 12° |
| 2026-05-05 17:16 | 42.03845 | 24.17890 | 40006 ft | 427 kts | 12° |
| 2026-05-05 17:17 | 42.09549 | 24.20132 | 40005 ft | 427 kts | 12° |
| 2026-05-05 17:17 | 42.15217 | 24.22364 | 40002 ft | 428 kts | 13° |
| 2026-05-05 17:18 | 42.20922 | 24.24615 | 39997 ft | 427 kts | 13° |
| 2026-05-05 17:18 | 42.26633 | 24.26873 | 39997 ft | 427 kts | 13° |
| 2026-05-05 17:19 | 42.32340 | 24.29134 | 39998 ft | 428 kts | 13° |
| 2026-05-05 17:19 | 42.38054 | 24.31400 | 39998 ft | 428 kts | 13° |
| 2026-05-05 17:20 | 42.43771 | 24.33672 | 39998 ft | 428 kts | 13° |
| 2026-05-05 17:20 | 42.49475 | 24.35944 | 39999 ft | 428 kts | 13° |
| 2026-05-05 17:21 | 42.55194 | 24.38226 | 39999 ft | 428 kts | 13° |
| 2026-05-05 17:22 | 42.63779 | 24.41661 | 40000 ft | 429 kts | 13° |
| 2026-05-05 17:22 | 42.69507 | 24.43957 | 40000 ft | 430 kts | 13° |
| 2026-05-05 17:23 | 42.75240 | 24.46260 | 40000 ft | 429 kts | 13° |
| 2026-05-05 17:23 | 42.80975 | 24.48569 | 40001 ft | 430 kts | 13° |
| 2026-05-05 17:24 | 42.86714 | 24.50883 | 40001 ft | 430 kts | 14° |
| 2026-05-05 17:24 | 42.92474 | 24.53211 | 39766 ft | 432 kts | 14° |
| 2026-05-05 17:24 | 42.95347 | 24.54373 | 39518 ft | 430 kts | 14° |
| 2026-05-05 17:25 | 42.98209 | 24.55533 | 39269 ft | 429 kts | 14° |
| 2026-05-05 17:25 | 43.00104 | 24.56301 | 39103 ft | 428 kts | 14° |
| 2026-05-05 17:25 | 43.03923 | 24.57851 | 38769 ft | 428 kts | 14° |
| 2026-05-05 17:25 | 43.06779 | 24.59011 | 38518 ft | 428 kts | 14° |
| 2026-05-05 17:26 | 43.09631 | 24.60171 | 38269 ft | 428 kts | 14° |
| 2026-05-05 17:26 | 43.12476 | 24.61329 | 37734 ft | 426 kts | 14° |
| 2026-05-05 17:26 | 43.15323 | 24.62489 | 36989 ft | 427 kts | 14° |
| 2026-05-05 17:26 | 43.18172 | 24.63651 | 36235 ft | 427 kts | 14° |
| 2026-05-05 17:27 | 43.21026 | 24.64816 | 35455 ft | 428 kts | 14° |
| 2026-05-05 17:27 | 43.23883 | 24.65983 | 34660 ft | 428 kts | 14° |
| 2026-05-05 17:27 | 43.26738 | 24.67151 | 33845 ft | 428 kts | 14° |
| 2026-05-05 17:27 | 43.29592 | 24.68320 | 33020 ft | 428 kts | 14° |
| 2026-05-05 17:28 | 43.32434 | 24.69485 | 32390 ft | 424 kts | 14° |
| 2026-05-05 17:28 | 43.35243 | 24.70637 | 31783 ft | 419 kts | 14° |
| 2026-05-05 17:28 | 43.38018 | 24.71776 | 31184 ft | 414 kts | 14° |
| 2026-05-05 17:28 | 43.40766 | 24.72897 | 30589 ft | 410 kts | 14° |
| 2026-05-05 17:29 | 43.43473 | 24.74005 | 30002 ft | 405 kts | 14° |
| 2026-05-05 17:29 | 43.46167 | 24.75114 | 29409 ft | 401 kts | 14° |
| 2026-05-05 17:29 | 43.48828 | 24.76213 | 28812 ft | 397 kts | 15° |
| 2026-05-05 17:29 | 43.51461 | 24.77302 | 28220 ft | 393 kts | 15° |
| 2026-05-05 17:30 | 43.54059 | 24.78378 | 27633 ft | 389 kts | 15° |
| 2026-05-05 17:30 | 43.56646 | 24.79450 | 27046 ft | 385 kts | 15° |
| 2026-05-05 17:30 | 43.59199 | 24.80511 | 26466 ft | 382 kts | 15° |
| 2026-05-05 17:30 | 43.61730 | 24.81576 | 25913 ft | 379 kts | 17° |
| 2026-05-05 17:31 | 43.64073 | 24.83164 | 25649 ft | 376 kts | 32° |
| 2026-05-05 17:31 | 43.66015 | 24.85616 | 25400 ft | 384 kts | 47° |
| 2026-05-05 17:31 | 43.67517 | 24.88704 | 25153 ft | 391 kts | 57° |
| 2026-05-05 17:31 | 43.68901 | 24.91955 | 24899 ft | 392 kts | 55° |
| 2026-05-05 17:32 | 43.70312 | 24.95160 | 24649 ft | 390 kts | 56° |
| 2026-05-05 17:32 | 43.71713 | 24.98358 | 24395 ft | 388 kts | 56° |
| 2026-05-05 17:32 | 43.73117 | 25.01572 | 24031 ft | 397 kts | 56° |
| 2026-05-05 17:32 | 43.74552 | 25.04871 | 23533 ft | 404 kts | 56° |
| 2026-05-05 17:33 | 43.76008 | 25.08222 | 23032 ft | 406 kts | 56° |
| 2026-05-05 17:33 | 43.77459 | 25.11567 | 22532 ft | 404 kts | 57° |
| 2026-05-05 17:33 | 43.78894 | 25.14880 | 22031 ft | 400 kts | 57° |
| 2026-05-05 17:33 | 43.80314 | 25.18168 | 21530 ft | 396 kts | 57° |
| 2026-05-05 17:34 | 43.81724 | 25.21429 | 21029 ft | 392 kts | 57° |
| 2026-05-05 17:34 | 43.83115 | 25.24653 | 20529 ft | 389 kts | 57° |
| 2026-05-05 17:34 | 43.84496 | 25.27858 | 20028 ft | 386 kts | 57° |
| 2026-05-05 17:34 | 43.85868 | 25.31039 | 19526 ft | 383 kts | 57° |
| 2026-05-05 17:35 | 43.87253 | 25.34175 | 19027 ft | 380 kts | 57° |
| 2026-05-05 17:35 | 43.88597 | 25.37237 | 18534 ft | 377 kts | 57° |
| 2026-05-05 17:35 | 43.89969 | 25.40384 | 18027 ft | 374 kts | 57° |
| 2026-05-05 17:35 | 43.91292 | 25.43435 | 17531 ft | 372 kts | 57° |
| 2026-05-05 17:36 | 43.92636 | 25.46541 | 17024 ft | 370 kts | 57° |
| 2026-05-05 17:36 | 43.93931 | 25.49544 | 16626 ft | 365 kts | 57° |
| 2026-05-05 17:36 | 43.95225 | 25.52548 | 16249 ft | 361 kts | 57° |
| 2026-05-05 17:36 | 43.96506 | 25.55533 | 15874 ft | 359 kts | 57° |
| 2026-05-05 17:37 | 43.97781 | 25.58502 | 15498 ft | 357 kts | 57° |
| 2026-05-05 17:37 | 43.98638 | 25.60501 | 15245 ft | 357 kts | 57° |
| 2026-05-05 17:37 | 44.00313 | 25.64414 | 14697 ft | 354 kts | 57° |
| 2026-05-05 17:37 | 44.01560 | 25.67330 | 14312 ft | 347 kts | 57° |
| 2026-05-05 17:38 | 44.02780 | 25.70188 | 14060 ft | 343 kts | 57° |
| 2026-05-05 17:38 | 44.03999 | 25.73043 | 13810 ft | 344 kts | 57° |
| 2026-05-05 17:38 | 44.05226 | 25.75924 | 13557 ft | 348 kts | 57° |
| 2026-05-05 17:38 | 44.06460 | 25.78821 | 13310 ft | 348 kts | 57° |
| 2026-05-05 17:39 | 44.07685 | 25.81699 | 13058 ft | 345 kts | 57° |
| 2026-05-05 17:39 | 44.08903 | 25.84557 | 12808 ft | 342 kts | 57° |
| 2026-05-05 17:39 | 44.10132 | 25.87390 | 12558 ft | 341 kts | 57° |
| 2026-05-05 17:39 | 44.11346 | 25.90223 | 12308 ft | 341 kts | 57° |
| 2026-05-05 17:40 | 44.12548 | 25.93054 | 12058 ft | 339 kts | 57° |
| 2026-05-05 17:40 | 44.13741 | 25.95881 | 11807 ft | 338 kts | 57° |
| 2026-05-05 17:40 | 44.14935 | 25.98703 | 11558 ft | 338 kts | 58° |
| 2026-05-05 17:40 | 44.16122 | 26.01528 | 11306 ft | 338 kts | 58° |
| 2026-05-05 17:41 | 44.17306 | 26.04350 | 11021 ft | 338 kts | 58° |
| 2026-05-05 17:41 | 44.18496 | 26.07186 | 10434 ft | 339 kts | 58° |
| 2026-05-05 17:41 | 44.19674 | 26.09996 | 10046 ft | 329 kts | 58° |
| 2026-05-05 17:41 | 44.20791 | 26.12664 | 10024 ft | 309 kts | 58° |
| 2026-05-05 17:42 | 44.21837 | 26.15164 | 10019 ft | 289 kts | 58° |
| 2026-05-05 17:42 | 44.22824 | 26.17519 | 9932 ft | 274 kts | 58° |
| 2026-05-05 17:42 | 44.23779 | 26.19796 | 9533 ft | 272 kts | 58° |
| 2026-05-05 17:42 | 44.24753 | 26.22047 | 9088 ft | 271 kts | 53° |
| 2026-05-05 17:43 | 44.25985 | 26.24020 | 8605 ft | 270 kts | 42° |
| 2026-05-05 17:43 | 44.27460 | 26.25670 | 8063 ft | 273 kts | 34° |
| 2026-05-05 17:43 | 44.29021 | 26.27145 | 7727 ft | 269 kts | 33° |
| 2026-05-05 17:43 | 44.30402 | 26.28436 | 7356 ft | 268 kts | 33° |
| 2026-05-05 17:44 | 44.31946 | 26.29883 | 7112 ft | 268 kts | 33° |
| 2026-05-05 17:44 | 44.32962 | 26.30855 | 7064 ft | 268 kts | 34° |
| 2026-05-05 17:44 | 44.34479 | 26.32338 | 7002 ft | 262 kts | 34° |
| 2026-05-05 17:44 | 44.35947 | 26.33779 | 6760 ft | 256 kts | 34° |
| 2026-05-05 17:45 | 44.37427 | 26.35231 | 6117 ft | 266 kts | 34° |
| 2026-05-05 17:45 | 44.38960 | 26.36737 | 5827 ft | 269 kts | 34° |
| 2026-05-05 17:45 | 44.40495 | 26.38244 | 5736 ft | 271 kts | 34° |
| 2026-05-05 17:45 | 44.42044 | 26.39766 | 5527 ft | 275 kts | 34° |
| 2026-05-05 17:46 | 44.43596 | 26.41289 | 5310 ft | 268 kts | 34° |
| 2026-05-05 17:46 | 44.45145 | 26.42655 | 5091 ft | 259 kts | 25° |
| 2026-05-05 17:46 | 44.46857 | 26.43261 | 4882 ft | 252 kts | 4° |
| 2026-05-05 17:46 | 44.48591 | 26.43124 | 4679 ft | 249 kts | 353° |
| 2026-05-05 17:47 | 44.50295 | 26.42744 | 4475 ft | 248 kts | 350° |
| 2026-05-05 17:47 | 44.51997 | 26.42350 | 4272 ft | 247 kts | 351° |
| 2026-05-05 17:47 | 44.53699 | 26.41998 | 4071 ft | 247 kts | 352° |
| 2026-05-05 17:47 | 44.55382 | 26.41664 | 3923 ft | 240 kts | 352° |
| 2026-05-05 17:48 | 44.56992 | 26.41315 | 3812 ft | 229 kts | 347° |
| 2026-05-05 17:48 | 44.58379 | 26.40316 | 3691 ft | 225 kts | 314° |
| 2026-05-05 17:48 | 44.58981 | 26.38396 | 3564 ft | 214 kts | 274° |
| 2026-05-05 17:48 | 44.58793 | 26.36396 | 3369 ft | 203 kts | 259° |
| 2026-05-05 17:49 | 44.58561 | 26.34469 | 3115 ft | 197 kts | 261° |
| 2026-05-05 17:49 | 44.58381 | 26.32601 | 2877 ft | 193 kts | 262° |
| 2026-05-05 17:49 | 44.58223 | 26.30730 | 2646 ft | 189 kts | 263° |
| 2026-05-05 17:49 | 44.58080 | 26.28928 | 2421 ft | 181 kts | 263° |
| 2026-05-05 17:50 | 44.57949 | 26.27235 | 2229 ft | 174 kts | 264° |
| 2026-05-05 17:50 | 44.57823 | 26.25577 | 2034 ft | 169 kts | 264° |
| 2026-05-05 17:50 | 44.57702 | 26.23991 | 1827 ft | 156 kts | 264° |
| 2026-05-05 17:50 | 44.57592 | 26.22540 | 1634 ft | 145 kts | 264° |
| 2026-05-05 17:51 | 44.57487 | 26.21149 | 1457 ft | 141 kts | 265° |
| 2026-05-05 17:51 | 44.57384 | 26.19796 | 1294 ft | 139 kts | 265° |
| 2026-05-05 17:51 | 44.57284 | 26.18433 | 1145 ft | 141 kts | 265° |
| 2026-05-05 17:51 | 44.57193 | 26.17063 | 988 ft | 143 kts | 264° |
| 2026-05-05 17:52 | 44.57075 | 26.15668 | 790 ft | 144 kts | 263° |
| 2026-05-05 17:52 | 44.56967 | 26.14295 | 636 ft | 139 kts | 264° |
| 2026-05-05 17:52 | 44.56866 | 26.12964 | 445 ft | 136 kts | 264° |
| 2026-05-05 17:52 | 44.56773 | 26.11666 | 324 ft | 129 kts | 264° |
| 2026-05-05 17:53 | 44.56692 | 26.10628 | 322 ft | 78 kts | 263° |
| 2026-05-05 17:53 | 44.56644 | 26.09974 | 322 ft | 62 kts | 264° |
| 2026-05-05 17:53 | 44.56602 | 26.09426 | 322 ft | 50 kts | 264° |
| 2026-05-05 17:53 | 44.56566 | 26.08987 | 322 ft | 39 kts | 264° |
| 2026-05-05 17:54 | 44.56582 | 26.08666 | 322 ft | 28 kts | 306° |
| 2026-05-05 17:54 | 44.56709 | 26.08581 | 322 ft | 11 kts | 353° |
| 2026-05-05 17:54 | 44.56781 | 26.08570 | 322 ft | 8 kts | 354° |
| 2026-05-05 17:54 | 44.56828 | 26.08563 | 322 ft | 5 kts | 354° |
| 2026-05-05 17:55 | 44.56874 | 26.08553 | 322 ft | 10 kts | 338° |
| 2026-05-05 17:55 | 44.56897 | 26.08438 | 322 ft | 15 kts | 285° |
| 2026-05-05 17:55 | 44.56954 | 26.08333 | 322 ft | 14 kts | 267° |
| 2026-05-05 17:55 | 44.56946 | 26.08219 | 322 ft | 11 kts | 264° |
| 2026-05-05 17:56 | 44.56965 | 26.08144 | 322 ft | 7 kts | 330° |
| 2026-05-05 17:56 | 44.56998 | 26.08128 | 322 ft | 3 kts | 359° |
| 2026-05-05 17:56 | 44.57018 | 26.08134 | 322 ft | 2 kts | 352° |
| 2026-05-05 17:56 | 44.57023 | 26.08133 | 322 ft | 0 kts | 352° |